Ebroborg — PCGH — position and weather

sailwx.info

Track history (hours):
 
Tides and Currents Weather Stations Pressure Air Temp Water Temp Dewpoint Dewpoint Depression Visibility Wind Speed Wind Dir Waves Ship Positions

Ebroborg

Last reported at 2017-Nov-23 20:13 UTC. Time now 2017-Nov-24 11:10 UTC.
Position N 38°59' E 017°47'.

Length 138 m; draft 7.6 m.

Type: Cargo ship. MMSI: 245952000.

Date/timePositionNaut miles runAvg speedWind from/ knotsBaromVisibWave heightAir tempDewpointWater temp
2017-Nov-23 20:13N 38°59' E 017°47'612.3
2017-Nov-23 19:43N 38°54' E 017°43'311.9
2017-Nov-23 19:30N 38°52' E 017°41'20312.0
2017-Nov-23 02:31N 36°28' E 014°39'113.4
2017-Nov-23 02:28N 36°28' E 014°39'613.3
2017-Nov-23 02:00N 36°29' E 014°31'713.1
2017-Nov-23 01:30N 36°30' E 014°23'713.2
2017-Nov-23 01:00N 36°33' E 014°16'713.1
2017-Nov-23 00:30N 36°35' E 014°08'713.2
2017-Nov-22 23:57N 36°37' E 013°59'  
2017-Nov-20 00:30N 36°01' W 005°14'713.1
2017-Nov-20 00:00N 35°59' W 005°22'612.8
2017-Nov-19 23:30N 35°57' W 005°30'17211.6
2017-Nov-19 08:39N 36°30' W 008°59'212.3
2017-Nov-19 08:30N 36°30' W 009°01'1112.3
2017-Nov-19 07:34N 36°34' W 009°15'112.3
2017-Nov-19 07:30N 36°34' W 009°16'712.3
2017-Nov-19 06:58N 36°38' W 009°22'612.9
2017-Nov-19 06:30N 36°42' W 009°27'612.6
2017-Nov-19 06:00N 36°47' W 009°32'612.6
2017-Nov-19 05:30N 36°54' W 009°34'612.6
2017-Nov-19 05:00N 36°60' W 009°36'812.1
2017-Nov-19 04:21N 37°07' W 009°38'411.8
2017-Nov-19 04:00N 37°11' W 009°40'612.3
2017-Nov-19 03:30N 37°17' W 009°42'612.4
2017-Nov-19 03:00N 37°23' W 009°44'612.4
2017-Nov-19 02:30N 37°29' W 009°46'612.8
2017-Nov-19 02:00N 37°35' W 009°47'612.7
2017-Nov-19 01:30N 37°42' W 009°49'612.9
2017-Nov-19 01:00N 37°48' W 009°51'612.9
2017-Nov-19 00:30N 37°54' W 009°53'612.9
2017-Nov-19 00:00N 38°00' W 009°55'713.4
2017-Nov-18 23:30N 38°07' W 009°57'713.6
2017-Nov-18 23:00N 38°14' W 009°58'713.1
2017-Nov-18 22:30N 38°20' W 010°00'612.8
2017-Nov-18 22:00N 38°26' W 010°02'612.9
2017-Nov-18 21:30N 38°33' W 010°04'612.6
2017-Nov-18 21:00N 38°38' W 010°06'612.3
2017-Nov-18 20:30N 38°45' W 010°07'612.8
2017-Nov-18 20:00N 38°51' W 010°07'612.8
2017-Nov-18 19:30N 38°57' W 010°07'612.9
2017-Nov-18 19:00N 39°04' W 010°07'612.9
2017-Nov-18 18:30N 39°10' W 010°07'612.9
2017-Nov-18 18:00N 39°17' W 010°07'612.6
2017-Nov-18 17:30N 39°23' W 010°07'612.6
2017-Nov-18 16:59N 39°30' W 010°07'2512.5
2017-Nov-18 14:56N 39°55' W 010°07'612.6
2017-Nov-18 14:28N 40°01' W 010°07'712.9
2017-Nov-18 13:54N 40°08' W 010°07'512.8
2017-Nov-18 13:30N 40°13' W 010°07'1713.1
2017-Nov-18 12:14N 40°30' W 010°07'1113.2
2017-Nov-18 11:23N 40°41' W 010°07'44312.3
2017-Nov-16 23:23N 47°40' W 006°46'6413.3
2017-Nov-16 18:33N 48°37' W 006°01'3412.2
2017-Nov-16 15:45N 49°02' W 005°25'5211.9
2017-Nov-16 11:22N 49°31' W 004°19'513.6
2017-Nov-16 11:00N 49°33' W 004°13'813.8
2017-Nov-16 10:28N 49°37' W 004°03'713.9
2017-Nov-16 09:59N 49°41' W 003°54'1313.7
2017-Nov-16 09:01N 49°49' W 003°37'013.1
2017-Nov-16 08:59N 49°49' W 003°37'613.2
2017-Nov-16 08:30N 49°52' W 003°28'612.7
2017-Nov-16 08:00N 49°54' W 003°19'612.4
2017-Nov-16 07:29N 49°56' W 003°09'611.8
2017-Nov-16 07:01N 49°58' W 003°01'611.3
2017-Nov-16 06:30N 49°59' W 002°52'510.9
2017-Nov-16 06:00N 50°01' W 002°44'610.7
2017-Nov-16 05:26N 50°02' W 002°35'1010.7
2017-Nov-16 04:30N 50°05' W 002°20'711.2
2017-Nov-16 03:53N 50°07' W 002°10'1112.3
2017-Nov-16 02:58N 50°10' W 001°53'613.5
2017-Nov-16 02:30N 50°12' W 001°44'714.4
2017-Nov-16 02:00N 50°14' W 001°33'714.8
2017-Nov-16 01:30N 50°16' W 001°22'3715.2
2017-Nov-15 23:05N 50°26' W 000°26'114.4
2017-Nov-15 23:01N 50°26' W 000°24'713.9
2017-Nov-15 22:29N 50°28' W 000°14'713.5
2017-Nov-15 22:00N 50°30' W 000°04'713.1
2017-Nov-15 21:29N 50°32' E 000°07'612.5
2017-Nov-15 21:00N 50°34' E 000°16'612.0
2017-Nov-15 20:31N 50°35' E 000°25'611.5
2017-Nov-15 20:00N 50°37' E 000°33'611.2
2017-Nov-15 19:30N 50°40' E 000°41'611.5
2017-Nov-15 19:01N 50°44' E 000°48'612.0
2017-Nov-15 18:31N 50°47' E 000°55'712.7
2017-Nov-15 18:00N 50°52' E 001°03'713.6
2017-Nov-15 17:30N 50°56' E 001°11'714.5
2017-Nov-15 17:00N 51°01' E 001°20'715.0
2017-Nov-15 16:30N 51°05' E 001°29'714.8
2017-Nov-15 16:00N 51°10' E 001°38'713.7
2017-Nov-15 15:30N 51°15' E 001°46'713.2
2017-Nov-15 15:00N 51°20' E 001°51'612.5
2017-Nov-15 14:30N 51°26' E 001°57'612.1
2017-Nov-15 14:01N 51°31' E 002°03'611.7
2017-Nov-15 13:29N 51°35' E 002°09'611.5
2017-Nov-15 13:00N 51°40' E 002°15'611.2
2017-Nov-15 12:30N 51°44' E 002°20'  
Track history (hours):
 
Tides and Currents Weather Stations Pressure Air Temp Water Temp Dewpoint Dewpoint Depression Visibility Wind Speed Wind Dir Waves Ship Positions

Ebroborg

Last reported at 2017-Nov-23 20:13 UTC. Time now 2017-Nov-24 11:10 UTC.
Position N 38°59' E 017°47'.

Length 138 m; draft 7.6 m.

Type: Cargo ship. MMSI: 245952000.

Date/timePositionNaut miles runAvg speedWind from/ knotsBaromVisibWave heightAir tempDewpointWater temp
2017-Nov-23 20:13N 38°59' E 017°47'612.3
2017-Nov-23 19:43N 38°54' E 017°43'311.9
2017-Nov-23 19:30N 38°52' E 017°41'20312.0
2017-Nov-23 02:31N 36°28' E 014°39'113.4
2017-Nov-23 02:28N 36°28' E 014°39'613.3
2017-Nov-23 02:00N 36°29' E 014°31'713.1
2017-Nov-23 01:30N 36°30' E 014°23'713.2
2017-Nov-23 01:00N 36°33' E 014°16'713.1
2017-Nov-23 00:30N 36°35' E 014°08'713.2
2017-Nov-22 23:57N 36°37' E 013°59'  
2017-Nov-20 00:30N 36°01' W 005°14'713.1
2017-Nov-20 00:00N 35°59' W 005°22'612.8
2017-Nov-19 23:30N 35°57' W 005°30'17211.6
2017-Nov-19 08:39N 36°30' W 008°59'212.3
2017-Nov-19 08:30N 36°30' W 009°01'1112.3
2017-Nov-19 07:34N 36°34' W 009°15'112.3
2017-Nov-19 07:30N 36°34' W 009°16'712.3
2017-Nov-19 06:58N 36°38' W 009°22'612.9
2017-Nov-19 06:30N 36°42' W 009°27'612.6
2017-Nov-19 06:00N 36°47' W 009°32'612.6
2017-Nov-19 05:30N 36°54' W 009°34'612.6
2017-Nov-19 05:00N 36°60' W 009°36'812.1
2017-Nov-19 04:21N 37°07' W 009°38'411.8
2017-Nov-19 04:00N 37°11' W 009°40'612.3
2017-Nov-19 03:30N 37°17' W 009°42'612.4
2017-Nov-19 03:00N 37°23' W 009°44'612.4
2017-Nov-19 02:30N 37°29' W 009°46'612.8
2017-Nov-19 02:00N 37°35' W 009°47'612.7
2017-Nov-19 01:30N 37°42' W 009°49'612.9
2017-Nov-19 01:00N 37°48' W 009°51'612.9
2017-Nov-19 00:30N 37°54' W 009°53'612.9
2017-Nov-19 00:00N 38°00' W 009°55'713.4
2017-Nov-18 23:30N 38°07' W 009°57'713.6
2017-Nov-18 23:00N 38°14' W 009°58'713.1
2017-Nov-18 22:30N 38°20' W 010°00'612.8
2017-Nov-18 22:00N 38°26' W 010°02'612.9
2017-Nov-18 21:30N 38°33' W 010°04'612.6
2017-Nov-18 21:00N 38°38' W 010°06'612.3
2017-Nov-18 20:30N 38°45' W 010°07'612.8
2017-Nov-18 20:00N 38°51' W 010°07'612.8
2017-Nov-18 19:30N 38°57' W 010°07'612.9
2017-Nov-18 19:00N 39°04' W 010°07'612.9
2017-Nov-18 18:30N 39°10' W 010°07'612.9
2017-Nov-18 18:00N 39°17' W 010°07'612.6
2017-Nov-18 17:30N 39°23' W 010°07'612.6
2017-Nov-18 16:59N 39°30' W 010°07'2512.5
2017-Nov-18 14:56N 39°55' W 010°07'612.6
2017-Nov-18 14:28N 40°01' W 010°07'712.9
2017-Nov-18 13:54N 40°08' W 010°07'512.8
2017-Nov-18 13:30N 40°13' W 010°07'1713.1
2017-Nov-18 12:14N 40°30' W 010°07'1113.2
2017-Nov-18 11:23N 40°41' W 010°07'44312.3
2017-Nov-16 23:23N 47°40' W 006°46'6413.3
2017-Nov-16 18:33N 48°37' W 006°01'3412.2
2017-Nov-16 15:45N 49°02' W 005°25'5211.9
2017-Nov-16 11:22N 49°31' W 004°19'513.6
2017-Nov-16 11:00N 49°33' W 004°13'813.8
2017-Nov-16 10:28N 49°37' W 004°03'713.9
2017-Nov-16 09:59N 49°41' W 003°54'1313.7
2017-Nov-16 09:01N 49°49' W 003°37'013.1
2017-Nov-16 08:59N 49°49' W 003°37'613.2
2017-Nov-16 08:30N 49°52' W 003°28'612.7
2017-Nov-16 08:00N 49°54' W 003°19'612.4
2017-Nov-16 07:29N 49°56' W 003°09'611.8
2017-Nov-16 07:01N 49°58' W 003°01'611.3
2017-Nov-16 06:30N 49°59' W 002°52'510.9
2017-Nov-16 06:00N 50°01' W 002°44'610.7
2017-Nov-16 05:26N 50°02' W 002°35'1010.7
2017-Nov-16 04:30N 50°05' W 002°20'711.2
2017-Nov-16 03:53N 50°07' W 002°10'1112.3
2017-Nov-16 02:58N 50°10' W 001°53'613.5
2017-Nov-16 02:30N 50°12' W 001°44'714.4
2017-Nov-16 02:00N 50°14' W 001°33'714.8
2017-Nov-16 01:30N 50°16' W 001°22'3715.2
2017-Nov-15 23:05N 50°26' W 000°26'114.4
2017-Nov-15 23:01N 50°26' W 000°24'713.9
2017-Nov-15 22:29N 50°28' W 000°14'713.5
2017-Nov-15 22:00N 50°30' W 000°04'713.1
2017-Nov-15 21:29N 50°32' E 000°07'612.5
2017-Nov-15 21:00N 50°34' E 000°16'612.0
2017-Nov-15 20:31N 50°35' E 000°25'611.5
2017-Nov-15 20:00N 50°37' E 000°33'611.2
2017-Nov-15 19:30N 50°40' E 000°41'611.5
2017-Nov-15 19:01N 50°44' E 000°48'612.0
2017-Nov-15 18:31N 50°47' E 000°55'712.7
2017-Nov-15 18:00N 50°52' E 001°03'713.6
2017-Nov-15 17:30N 50°56' E 001°11'714.5
2017-Nov-15 17:00N 51°01' E 001°20'715.0
2017-Nov-15 16:30N 51°05' E 001°29'714.8
2017-Nov-15 16:00N 51°10' E 001°38'713.7
2017-Nov-15 15:30N 51°15' E 001°46'713.2
2017-Nov-15 15:00N 51°20' E 001°51'612.5
2017-Nov-15 14:30N 51°26' E 001°57'612.1
2017-Nov-15 14:01N 51°31' E 002°03'611.7
2017-Nov-15 13:29N 51°35' E 002°09'611.5
2017-Nov-15 13:00N 51°40' E 002°15'611.2
2017-Nov-15 12:30N 51°44' E 002°20'  

Dump ship's entire track history